vous aimez ? un don permettra le maintien du site
nouveau site code QR

Nouveau site Autre version du site

Autre présentation du siteun concentré d'infos sur une page

In Memoriam - 26/08/2020Pascale Declercq + 23/08/2020 Leuven



 

Valid CSS!


Rapports METAR à proximité

   
LFQQ - Lille/Lesquin, France
Distance: SE 22 km
Mise à jour: 03-03-2024 19:00
Clair  
Clair  
   Vent: Ouest 6 km/h
Vent: Ouest 6 km/h
Température: 6°C
éolien: 5°C
Point de rosée: 5°C
Humidité: 93%
Baromètre: 1006 hPa
visibilité: More than 10 km
Détails des nuages: Clair m
LFQQ 031800Z AUTO 28003KT CAVOK 06/05 Q1006 NOSIG
EBFN - Koksijde (bel-Af, Belgium
Distance: NNO 42 km
Mise à jour: 03-03-2024 18:55
Nuageux  
Nuageux  
   Vent: ONO 7 km/h
Vent: ONO 7 km/h
Température: 6°C
éolien: 4°C
Point de rosée: 3°C
Humidité: 81%
Baromètre: 1006 hPa
Nuages: Overcast
visibilité: More than 10 km
Détails des nuages: Nuageux 2590.8 m
EBFN 031755Z AUTO 30004KT 9999 OVC085/// 06/03 Q1006 BLU
EBOS - Oostende Airport, Belgium
Distance: N 53 km
Mise à jour: 03-03-2024 18:50
Peu de nuages  
Peu de nuages  
   Vent: NNO 15 km/h
Vent: NNO 15 km/h
Température: 7°C
éolien: 4°C
Point de rosée: 3°C
Humidité: 76%
Baromètre: 1006 hPa
Nuages: Few Clouds
visibilité: More than 10 km
Détails des nuages: Peu de nuages 762 m
EBOS 031750Z 34008KT 9999 FEW025 07/03 Q1006 NOSIG

Script développé par  Saratoga-weather.org Adapté pour le modèle par  Weerstation Leuven

Vous trouverez notre info météo Également à:

UK Metoffice

European Weather Network

Weather Underground

AWEKAS

Citizen Weather Observer Program (CWOP)

HAMweather, WeatherForYou, PWS Weather

Équipement utilisé:

Station de Météo
Vantage Pro2

Programme Météo
cumulusMX

Ordinateur Météo
ThinkCentre M93p

Fournisseur d'accès Internet
Hébergé par

Vantage Pro2

cumulusMX

ThinkCentre M93p

Hébergé par